sensor_id;sensor_type;location;lat;lon;timestamp;P1;durP1;ratioP1;P2;durP2;ratioP2
13933;SDS011;7039;52.168;9.866;2023-02-15T00:00:43;10.97;;;6.70;;
13933;SDS011;7039;52.168;9.866;2023-02-15T00:03:10;10.67;;;6.60;;
13933;SDS011;7039;52.168;9.866;2023-02-15T00:05:38;11.60;;;6.77;;
13933;SDS011;7039;52.168;9.866;2023-02-15T00:08:04;11.53;;;6.63;;
13933;SDS011;7039;52.168;9.866;2023-02-15T00:10:31;11.53;;;6.43;;
13933;SDS011;7039;52.168;9.866;2023-02-15T00:12:57;10.43;;;5.93;;
13933;SDS011;7039;52.168;9.866;2023-02-15T00:15:26;10.43;;;6.03;;
13933;SDS011;7039;52.168;9.866;2023-02-15T00:17:52;8.50;;;5.27;;
13933;SDS011;7039;52.168;9.866;2023-02-15T00:20:19;9.93;;;5.13;;
13933;SDS011;7039;52.168;9.866;2023-02-15T00:22:46;10.07;;;6.20;;
13933;SDS011;7039;52.168;9.866;2023-02-15T00:25:13;10.63;;;6.27;;
13933;SDS011;7039;52.168;9.866;2023-02-15T00:27:39;10.77;;;6.70;;
13933;SDS011;7039;52.168;9.866;2023-02-15T00:30:06;13.77;;;6.67;;
13933;SDS011;7039;52.168;9.866;2023-02-15T00:32:33;10.73;;;6.37;;
13933;SDS011;7039;52.168;9.866;2023-02-15T00:35:00;11.03;;;6.63;;
13933;SDS011;7039;52.168;9.866;2023-02-15T00:37:26;11.80;;;7.13;;
13933;SDS011;7039;52.168;9.866;2023-02-15T00:39:54;11.33;;;6.50;;
13933;SDS011;7039;52.168;9.866;2023-02-15T00:42:21;12.73;;;6.73;;
13933;SDS011;7039;52.168;9.866;2023-02-15T00:44:47;13.27;;;7.17;;
13933;SDS011;7039;52.168;9.866;2023-02-15T00:47:13;12.83;;;7.47;;
13933;SDS011;7039;52.168;9.866;2023-02-15T00:49:40;12.77;;;7.00;;
13933;SDS011;7039;52.168;9.866;2023-02-15T00:52:07;12.83;;;7.40;;
13933;SDS011;7039;52.168;9.866;2023-02-15T00:54:33;11.57;;;7.03;;
13933;SDS011;7039;52.168;9.866;2023-02-15T00:57:01;13.70;;;7.10;;
13933;SDS011;7039;52.168;9.866;2023-02-15T00:59:28;12.60;;;7.03;;
13933;SDS011;7039;52.168;9.866;2023-02-15T01:01:54;12.27;;;7.00;;
13933;SDS011;7039;52.168;9.866;2023-02-15T01:04:21;14.23;;;7.90;;
13933;SDS011;7039;52.168;9.866;2023-02-15T01:06:47;12.30;;;7.67;;
13933;SDS011;7039;52.168;9.866;2023-02-15T01:09:14;11.77;;;7.83;;
13933;SDS011;7039;52.168;9.866;2023-02-15T01:11:40;11.80;;;7.37;;
13933;SDS011;7039;52.168;9.866;2023-02-15T01:14:08;13.27;;;7.90;;
13933;SDS011;7039;52.168;9.866;2023-02-15T01:16:35;13.10;;;7.87;;
13933;SDS011;7039;52.168;9.866;2023-02-15T01:19:02;13.00;;;7.13;;
13933;SDS011;7039;52.168;9.866;2023-02-15T01:21:28;13.17;;;7.43;;
13933;SDS011;7039;52.168;9.866;2023-02-15T01:23:55;13.93;;;6.67;;
13933;SDS011;7039;52.168;9.866;2023-02-15T01:26:21;12.83;;;7.67;;
13933;SDS011;7039;52.168;9.866;2023-02-15T01:28:48;10.90;;;7.00;;
13933;SDS011;7039;52.168;9.866;2023-02-15T01:31:16;13.73;;;7.67;;
13933;SDS011;7039;52.168;9.866;2023-02-15T01:33:44;13.33;;;7.80;;
13933;SDS011;7039;52.168;9.866;2023-02-15T01:36:11;13.37;;;8.07;;
13933;SDS011;7039;52.168;9.866;2023-02-15T01:38:38;14.73;;;8.93;;
13933;SDS011;7039;52.168;9.866;2023-02-15T01:41:06;16.20;;;8.23;;
13933;SDS011;7039;52.168;9.866;2023-02-15T01:43:52;13.37;;;8.50;;
13933;SDS011;7039;52.168;9.866;2023-02-15T01:46:23;15.50;;;8.53;;
13933;SDS011;7039;52.168;9.866;2023-02-15T01:48:54;13.97;;;7.70;;
13933;SDS011;7039;52.168;9.866;2023-02-15T01:51:23;13.87;;;7.80;;
13933;SDS011;7039;52.168;9.866;2023-02-15T01:53:53;15.07;;;8.50;;
13933;SDS011;7039;52.168;9.866;2023-02-15T01:56:26;13.50;;;7.53;;
13933;SDS011;7039;52.168;9.866;2023-02-15T01:58:55;12.33;;;7.20;;
13933;SDS011;7039;52.168;9.866;2023-02-15T02:01:26;14.70;;;7.57;;
13933;SDS011;7039;52.168;9.866;2023-02-15T02:03:56;13.83;;;8.27;;
13933;SDS011;7039;52.168;9.866;2023-02-15T02:06:26;15.27;;;8.10;;
13933;SDS011;7039;52.168;9.866;2023-02-15T02:08:53;12.63;;;7.40;;
13933;SDS011;7039;52.168;9.866;2023-02-15T02:11:21;15.60;;;8.03;;
13933;SDS011;7039;52.168;9.866;2023-02-15T02:13:48;15.87;;;8.60;;
13933;SDS011;7039;52.168;9.866;2023-02-15T02:16:19;15.73;;;7.73;;
13933;SDS011;7039;52.168;9.866;2023-02-15T02:18:54;15.37;;;8.20;;
13933;SDS011;7039;52.168;9.866;2023-02-15T02:24:45;13.00;;;7.53;;
13933;SDS011;7039;52.168;9.866;2023-02-15T02:27:37;12.10;;;6.80;;
13933;SDS011;7039;52.168;9.866;2023-02-15T02:30:21;13.73;;;7.83;;
13933;SDS011;7039;52.168;9.866;2023-02-15T02:33:13;12.47;;;7.87;;
13933;SDS011;7039;52.168;9.866;2023-02-15T02:35:48;15.13;;;8.20;;
13933;SDS011;7039;52.168;9.866;2023-02-15T02:38:23;13.50;;;7.50;;
13933;SDS011;7039;52.168;9.866;2023-02-15T02:40:57;14.83;;;7.80;;
13933;SDS011;7039;52.168;9.866;2023-02-15T02:43:33;13.17;;;8.00;;
13933;SDS011;7039;52.168;9.866;2023-02-15T02:46:05;16.77;;;8.67;;
13933;SDS011;7039;52.168;9.866;2023-02-15T02:48:39;14.50;;;8.13;;
13933;SDS011;7039;52.168;9.866;2023-02-15T02:51:06;13.40;;;7.73;;
13933;SDS011;7039;52.168;9.866;2023-02-15T02:53:32;12.60;;;7.83;;
13933;SDS011;7039;52.168;9.866;2023-02-15T02:56:01;11.23;;;7.33;;
13933;SDS011;7039;52.168;9.866;2023-02-15T02:58:33;15.47;;;8.37;;
13933;SDS011;7039;52.168;9.866;2023-02-15T03:01:05;12.73;;;7.17;;
13933;SDS011;7039;52.168;9.866;2023-02-15T03:03:39;13.67;;;7.60;;
13933;SDS011;7039;52.168;9.866;2023-02-15T03:06:10;12.30;;;7.37;;
13933;SDS011;7039;52.168;9.866;2023-02-15T03:08:43;15.63;;;8.03;;
13933;SDS011;7039;52.168;9.866;2023-02-15T03:11:14;12.33;;;7.37;;
13933;SDS011;7039;52.168;9.866;2023-02-15T03:13:41;13.10;;;8.00;;
13933;SDS011;7039;52.168;9.866;2023-02-15T03:16:11;12.90;;;7.83;;
13933;SDS011;7039;52.168;9.866;2023-02-15T03:18:53;15.00;;;8.10;;
13933;SDS011;7039;52.168;9.866;2023-02-15T03:21:24;13.90;;;7.87;;
13933;SDS011;7039;52.168;9.866;2023-02-15T03:23:57;15.10;;;8.30;;
13933;SDS011;7039;52.168;9.866;2023-02-15T03:26:27;15.03;;;8.13;;
13933;SDS011;7039;52.168;9.866;2023-02-15T03:28:56;16.37;;;8.60;;
13933;SDS011;7039;52.168;9.866;2023-02-15T03:31:26;13.97;;;8.30;;
13933;SDS011;7039;52.168;9.866;2023-02-15T03:33:59;14.33;;;7.77;;
13933;SDS011;7039;52.168;9.866;2023-02-15T03:36:29;13.87;;;7.83;;
13933;SDS011;7039;52.168;9.866;2023-02-15T03:39:04;14.57;;;7.90;;
13933;SDS011;7039;52.168;9.866;2023-02-15T03:41:37;16.07;;;7.97;;
13933;SDS011;7039;52.168;9.866;2023-02-15T03:44:09;15.27;;;7.73;;
13933;SDS011;7039;52.168;9.866;2023-02-15T03:46:42;12.47;;;7.43;;
13933;SDS011;7039;52.168;9.866;2023-02-15T03:49:14;13.87;;;7.60;;
13933;SDS011;7039;52.168;9.866;2023-02-15T03:51:50;16.80;;;8.30;;
13933;SDS011;7039;52.168;9.866;2023-02-15T03:54:22;14.30;;;8.30;;
13933;SDS011;7039;52.168;9.866;2023-02-15T03:57:12;13.03;;;7.80;;
13933;SDS011;7039;52.168;9.866;2023-02-15T04:00:01;14.60;;;8.53;;
13933;SDS011;7039;52.168;9.866;2023-02-15T04:05:50;15.20;;;8.10;;
13933;SDS011;7039;52.168;9.866;2023-02-15T04:08:17;14.07;;;8.60;;
13933;SDS011;7039;52.168;9.866;2023-02-15T04:10:44;15.93;;;9.30;;
13933;SDS011;7039;52.168;9.866;2023-02-15T04:13:21;16.43;;;8.53;;
13933;SDS011;7039;52.168;9.866;2023-02-15T04:15:49;19.83;;;9.60;;
13933;SDS011;7039;52.168;9.866;2023-02-15T04:18:31;16.67;;;9.73;;
13933;SDS011;7039;52.168;9.866;2023-02-15T04:21:18;17.77;;;9.50;;
13933;SDS011;7039;52.168;9.866;2023-02-15T04:24:03;18.20;;;10.37;;
13933;SDS011;7039;52.168;9.866;2023-02-15T04:26:48;16.77;;;9.37;;
13933;SDS011;7039;52.168;9.866;2023-02-15T04:29:18;17.47;;;9.00;;
13933;SDS011;7039;52.168;9.866;2023-02-15T04:31:45;18.47;;;9.73;;
13933;SDS011;7039;52.168;9.866;2023-02-15T04:34:12;16.00;;;9.43;;
13933;SDS011;7039;52.168;9.866;2023-02-15T04:36:41;18.37;;;9.20;;
13933;SDS011;7039;52.168;9.866;2023-02-15T04:39:08;16.33;;;9.10;;
13933;SDS011;7039;52.168;9.866;2023-02-15T04:41:38;17.43;;;9.57;;
13933;SDS011;7039;52.168;9.866;2023-02-15T04:44:06;16.63;;;9.27;;
13933;SDS011;7039;52.168;9.866;2023-02-15T04:46:33;16.73;;;9.63;;
13933;SDS011;7039;52.168;9.866;2023-02-15T04:49:00;16.33;;;8.80;;
13933;SDS011;7039;52.168;9.866;2023-02-15T04:51:27;17.13;;;9.43;;
13933;SDS011;7039;52.168;9.866;2023-02-15T04:53:56;20.67;;;10.20;;
13933;SDS011;7039;52.168;9.866;2023-02-15T04:56:23;15.27;;;9.23;;
13933;SDS011;7039;52.168;9.866;2023-02-15T04:58:50;18.77;;;9.40;;
13933;SDS011;7039;52.168;9.866;2023-02-15T05:01:17;18.60;;;9.70;;
13933;SDS011;7039;52.168;9.866;2023-02-15T05:03:44;16.57;;;9.50;;
13933;SDS011;7039;52.168;9.866;2023-02-15T05:06:11;16.97;;;9.87;;
13933;SDS011;7039;52.168;9.866;2023-02-15T05:08:38;20.27;;;10.30;;
13933;SDS011;7039;52.168;9.866;2023-02-15T05:11:07;17.60;;;9.30;;
13933;SDS011;7039;52.168;9.866;2023-02-15T05:13:34;16.10;;;8.90;;
13933;SDS011;7039;52.168;9.866;2023-02-15T05:16:01;17.23;;;9.60;;
13933;SDS011;7039;52.168;9.866;2023-02-15T09:45:46;11.17;;;7.07;;
13933;SDS011;7039;52.168;9.866;2023-02-15T09:51:14;10.87;;;7.43;;
13933;SDS011;7039;52.168;9.866;2023-02-15T09:53:59;12.87;;;7.80;;
13933;SDS011;7039;52.168;9.866;2023-02-15T09:56:37;13.00;;;7.80;;
13933;SDS011;7039;52.168;9.866;2023-02-15T09:59:09;11.97;;;7.67;;
13933;SDS011;7039;52.168;9.866;2023-02-15T10:01:44;11.13;;;6.57;;
13933;SDS011;7039;52.168;9.866;2023-02-15T10:04:28;10.07;;;6.53;;
13933;SDS011;7039;52.168;9.866;2023-02-15T10:07:08;11.53;;;6.70;;
13933;SDS011;7039;52.168;9.866;2023-02-15T10:09:54;11.70;;;6.27;;
13933;SDS011;7039;52.168;9.866;2023-02-15T10:12:34;10.30;;;6.57;;
13933;SDS011;7039;52.168;9.866;2023-02-15T10:15:16;8.50;;;5.50;;
13933;SDS011;7039;52.168;9.866;2023-02-15T10:17:54;9.57;;;5.27;;
13933;SDS011;7039;52.168;9.866;2023-02-15T10:20:33;9.43;;;5.83;;
13933;SDS011;7039;52.168;9.866;2023-02-15T10:23:13;11.13;;;5.90;;
13933;SDS011;7039;52.168;9.866;2023-02-15T10:25:50;9.30;;;5.47;;
13933;SDS011;7039;52.168;9.866;2023-02-15T10:28:26;8.10;;;5.27;;
13933;SDS011;7039;52.168;9.866;2023-02-15T10:31:02;9.60;;;5.57;;
13933;SDS011;7039;52.168;9.866;2023-02-15T10:33:39;9.87;;;5.87;;
13933;SDS011;7039;52.168;9.866;2023-02-15T10:36:19;8.40;;;5.87;;
13933;SDS011;7039;52.168;9.866;2023-02-15T10:38:58;9.20;;;6.07;;
13933;SDS011;7039;52.168;9.866;2023-02-15T10:41:35;11.47;;;6.40;;
13933;SDS011;7039;52.168;9.866;2023-02-15T10:47:06;9.30;;;5.50;;
13933;SDS011;7039;52.168;9.866;2023-02-15T10:50:06;11.60;;;6.77;;
13933;SDS011;7039;52.168;9.866;2023-02-15T10:52:47;9.50;;;6.07;;
13933;SDS011;7039;52.168;9.866;2023-02-15T10:55:27;9.50;;;6.10;;
13933;SDS011;7039;52.168;9.866;2023-02-15T10:58:05;9.77;;;5.57;;
13933;SDS011;7039;52.168;9.866;2023-02-15T11:00:37;8.93;;;5.83;;
13933;SDS011;7039;52.168;9.866;2023-02-15T11:03:25;12.87;;;8.23;;
13933;SDS011;7039;52.168;9.866;2023-02-15T11:06:04;9.40;;;6.37;;
13933;SDS011;7039;52.168;9.866;2023-02-15T11:08:35;10.43;;;6.30;;
13933;SDS011;7039;52.168;9.866;2023-02-15T11:11:05;10.23;;;6.37;;
13933;SDS011;7039;52.168;9.866;2023-02-15T11:13:36;9.80;;;6.50;;
13933;SDS011;7039;52.168;9.866;2023-02-15T11:16:11;10.93;;;6.33;;
13933;SDS011;7039;52.168;9.866;2023-02-15T11:18:41;9.63;;;6.23;;
13933;SDS011;7039;52.168;9.866;2023-02-15T11:21:16;10.47;;;6.23;;
13933;SDS011;7039;52.168;9.866;2023-02-15T11:23:46;10.47;;;6.97;;
13933;SDS011;7039;52.168;9.866;2023-02-15T11:26:14;9.77;;;5.80;;
13933;SDS011;7039;52.168;9.866;2023-02-15T11:28:47;9.00;;;5.40;;
13933;SDS011;7039;52.168;9.866;2023-02-15T11:31:19;10.87;;;6.20;;
13933;SDS011;7039;52.168;9.866;2023-02-15T11:33:49;8.67;;;6.37;;
13933;SDS011;7039;52.168;9.866;2023-02-15T11:36:20;9.50;;;5.87;;
13933;SDS011;7039;52.168;9.866;2023-02-15T11:38:50;8.23;;;5.33;;
13933;SDS011;7039;52.168;9.866;2023-02-15T11:41:24;7.30;;;5.67;;
13933;SDS011;7039;52.168;9.866;2023-02-15T11:43:56;8.90;;;5.57;;
13933;SDS011;7039;52.168;9.866;2023-02-15T11:46:26;8.00;;;5.40;;
13933;SDS011;7039;52.168;9.866;2023-02-15T11:48:53;8.73;;;6.00;;
13933;SDS011;7039;52.168;9.866;2023-02-15T11:51:21;8.90;;;5.57;;
13933;SDS011;7039;52.168;9.866;2023-02-15T11:53:49;8.27;;;5.67;;
13933;SDS011;7039;52.168;9.866;2023-02-15T11:56:16;9.23;;;5.93;;
13933;SDS011;7039;52.168;9.866;2023-02-15T11:58:45;8.80;;;5.47;;
13933;SDS011;7039;52.168;9.866;2023-02-15T12:01:18;9.17;;;6.00;;
13933;SDS011;7039;52.168;9.866;2023-02-15T12:03:49;10.60;;;6.23;;
13933;SDS011;7039;52.168;9.866;2023-02-15T12:06:19;9.67;;;5.83;;
13933;SDS011;7039;52.168;9.866;2023-02-15T12:09:03;10.67;;;6.50;;
13933;SDS011;7039;52.168;9.866;2023-02-15T12:11:36;11.03;;;6.20;;
13933;SDS011;7039;52.168;9.866;2023-02-15T12:14:05;11.23;;;6.90;;
13933;SDS011;7039;52.168;9.866;2023-02-15T12:16:34;12.77;;;6.90;;
13933;SDS011;7039;52.168;9.866;2023-02-15T12:19:11;9.50;;;6.50;;
13933;SDS011;7039;52.168;9.866;2023-02-15T12:21:49;11.07;;;7.43;;
13933;SDS011;7039;52.168;9.866;2023-02-15T12:24:19;12.07;;;7.50;;
13933;SDS011;7039;52.168;9.866;2023-02-15T12:26:55;13.13;;;7.30;;
13933;SDS011;7039;52.168;9.866;2023-02-15T12:29:25;14.77;;;7.60;;
13933;SDS011;7039;52.168;9.866;2023-02-15T12:31:54;12.27;;;6.90;;
13933;SDS011;7039;52.168;9.866;2023-02-15T12:34:21;10.07;;;6.77;;
13933;SDS011;7039;52.168;9.866;2023-02-15T12:36:52;9.87;;;6.87;;
13933;SDS011;7039;52.168;9.866;2023-02-15T12:39:23;14.87;;;8.30;;
13933;SDS011;7039;52.168;9.866;2023-02-15T12:42:03;12.90;;;7.17;;
13933;SDS011;7039;52.168;9.866;2023-02-15T12:44:39;10.77;;;7.40;;
13933;SDS011;7039;52.168;9.866;2023-02-15T12:47:20;14.87;;;9.67;;
13933;SDS011;7039;52.168;9.866;2023-02-15T12:50:03;13.40;;;7.67;;
13933;SDS011;7039;52.168;9.866;2023-02-15T12:52:43;11.90;;;7.77;;
13933;SDS011;7039;52.168;9.866;2023-02-15T12:55:11;13.77;;;8.23;;
13933;SDS011;7039;52.168;9.866;2023-02-15T12:57:45;12.83;;;7.87;;
13933;SDS011;7039;52.168;9.866;2023-02-15T13:00:24;10.63;;;6.53;;
13933;SDS011;7039;52.168;9.866;2023-02-15T13:02:54;9.57;;;6.77;;
13933;SDS011;7039;52.168;9.866;2023-02-15T13:05:23;10.50;;;6.27;;
13933;SDS011;7039;52.168;9.866;2023-02-15T13:07:57;10.27;;;6.20;;
13933;SDS011;7039;52.168;9.866;2023-02-15T13:10:26;12.43;;;8.03;;
13933;SDS011;7039;52.168;9.866;2023-02-15T13:12:55;11.17;;;6.57;;
13933;SDS011;7039;52.168;9.866;2023-02-15T13:15:23;10.57;;;6.30;;
13933;SDS011;7039;52.168;9.866;2023-02-15T13:17:54;11.27;;;7.03;;
13933;SDS011;7039;52.168;9.866;2023-02-15T13:20:22;8.47;;;6.30;;
13933;SDS011;7039;52.168;9.866;2023-02-15T13:22:49;12.07;;;6.80;;
13933;SDS011;7039;52.168;9.866;2023-02-15T13:25:20;11.83;;;6.87;;
13933;SDS011;7039;52.168;9.866;2023-02-15T13:27:50;10.57;;;6.87;;
13933;SDS011;7039;52.168;9.866;2023-02-15T13:30:22;9.93;;;6.80;;
13933;SDS011;7039;52.168;9.866;2023-02-15T13:32:51;11.37;;;7.30;;
13933;SDS011;7039;52.168;9.866;2023-02-15T13:35:21;10.17;;;6.70;;
13933;SDS011;7039;52.168;9.866;2023-02-15T13:40:44;11.27;;;6.90;;
13933;SDS011;7039;52.168;9.866;2023-02-15T13:43:18;12.77;;;7.03;;
13933;SDS011;7039;52.168;9.866;2023-02-15T13:46:00;10.90;;;6.37;;
13933;SDS011;7039;52.168;9.866;2023-02-15T13:48:39;11.03;;;7.00;;
13933;SDS011;7039;52.168;9.866;2023-02-15T13:51:14;11.93;;;6.93;;
13933;SDS011;7039;52.168;9.866;2023-02-15T13:53:51;11.43;;;6.83;;
13933;SDS011;7039;52.168;9.866;2023-02-15T13:56:31;11.13;;;7.20;;
13933;SDS011;7039;52.168;9.866;2023-02-15T13:59:13;10.80;;;7.70;;
13933;SDS011;7039;52.168;9.866;2023-02-15T14:01:53;11.33;;;6.93;;
13933;SDS011;7039;52.168;9.866;2023-02-15T14:04:31;10.80;;;7.10;;
13933;SDS011;7039;52.168;9.866;2023-02-15T14:10:21;16.67;;;8.00;;
13933;SDS011;7039;52.168;9.866;2023-02-15T14:13:08;11.20;;;7.30;;
13933;SDS011;7039;52.168;9.866;2023-02-15T14:15:52;14.53;;;8.27;;
13933;SDS011;7039;52.168;9.866;2023-02-15T14:18:25;15.77;;;8.87;;
13933;SDS011;7039;52.168;9.866;2023-02-15T14:21:01;15.40;;;8.97;;
13933;SDS011;7039;52.168;9.866;2023-02-15T14:23:36;16.63;;;9.10;;
13933;SDS011;7039;52.168;9.866;2023-02-15T14:26:14;15.37;;;8.90;;
13933;SDS011;7039;52.168;9.866;2023-02-15T14:28:49;14.30;;;8.53;;
13933;SDS011;7039;52.168;9.866;2023-02-15T14:31:24;12.20;;;7.97;;
13933;SDS011;7039;52.168;9.866;2023-02-15T14:33:55;13.37;;;8.20;;
13933;SDS011;7039;52.168;9.866;2023-02-15T14:36:22;16.53;;;8.20;;
13933;SDS011;7039;52.168;9.866;2023-02-15T14:38:54;14.37;;;10.53;;
13933;SDS011;7039;52.168;9.866;2023-02-15T14:41:29;14.90;;;8.97;;
13933;SDS011;7039;52.168;9.866;2023-02-15T14:44:04;16.20;;;9.63;;
13933;SDS011;7039;52.168;9.866;2023-02-15T14:46:39;15.87;;;10.10;;
13933;SDS011;7039;52.168;9.866;2023-02-15T14:49:11;13.40;;;8.10;;
13933;SDS011;7039;52.168;9.866;2023-02-15T14:51:56;17.80;;;10.10;;
13933;SDS011;7039;52.168;9.866;2023-02-15T14:57:23;18.23;;;10.40;;
13933;SDS011;7039;52.168;9.866;2023-02-15T14:59:54;15.67;;;8.53;;
13933;SDS011;7039;52.168;9.866;2023-02-15T15:02:23;12.27;;;7.93;;
13933;SDS011;7039;52.168;9.866;2023-02-15T15:04:56;13.73;;;8.20;;
13933;SDS011;7039;52.168;9.866;2023-02-15T15:07:26;14.87;;;7.87;;
13933;SDS011;7039;52.168;9.866;2023-02-15T15:09:58;14.30;;;8.27;;
13933;SDS011;7039;52.168;9.866;2023-02-15T15:12:36;13.00;;;7.77;;
13933;SDS011;7039;52.168;9.866;2023-02-15T15:15:06;16.47;;;10.20;;
13933;SDS011;7039;52.168;9.866;2023-02-15T15:17:54;14.60;;;9.57;;
13933;SDS011;7039;52.168;9.866;2023-02-15T15:20:39;15.23;;;8.27;;
13933;SDS011;7039;52.168;9.866;2023-02-15T15:26:22;12.67;;;8.33;;
13933;SDS011;7039;52.168;9.866;2023-02-15T15:28:58;15.90;;;8.87;;
13933;SDS011;7039;52.168;9.866;2023-02-15T15:31:34;15.20;;;9.57;;
13933;SDS011;7039;52.168;9.866;2023-02-15T15:34:21;14.03;;;8.77;;
13933;SDS011;7039;52.168;9.866;2023-02-15T15:37:16;11.50;;;7.43;;
13933;SDS011;7039;52.168;9.866;2023-02-15T15:43:03;15.13;;;9.30;;
13933;SDS011;7039;52.168;9.866;2023-02-15T15:45:55;12.93;;;7.77;;
13933;SDS011;7039;52.168;9.866;2023-02-15T15:48:33;22.80;;;14.50;;
13933;SDS011;7039;52.168;9.866;2023-02-15T15:51:04;12.53;;;7.67;;
13933;SDS011;7039;52.168;9.866;2023-02-15T15:53:38;12.03;;;7.73;;
13933;SDS011;7039;52.168;9.866;2023-02-15T15:56:14;14.87;;;7.63;;
13933;SDS011;7039;52.168;9.866;2023-02-15T15:58:46;15.57;;;8.00;;
13933;SDS011;7039;52.168;9.866;2023-02-15T16:59:01;24.50;;;13.97;;
13933;SDS011;7039;52.168;9.866;2023-02-15T17:01:34;36.37;;;18.43;;
13933;SDS011;7039;52.168;9.866;2023-02-15T17:04:16;27.50;;;13.70;;
13933;SDS011;7039;52.168;9.866;2023-02-15T17:07:39;29.70;;;15.93;;
13933;SDS011;7039;52.168;9.866;2023-02-15T17:58:59;25.07;;;12.33;;
13933;SDS011;7039;52.168;9.866;2023-02-15T18:07:01;22.63;;;13.90;;
13933;SDS011;7039;52.168;9.866;2023-02-15T18:09:47;15.77;;;9.67;;
13933;SDS011;7039;52.168;9.866;2023-02-15T18:15:33;16.27;;;9.50;;
13933;SDS011;7039;52.168;9.866;2023-02-15T18:44:09;20.17;;;11.77;;
13933;SDS011;7039;52.168;9.866;2023-02-15T18:46:44;20.50;;;11.50;;
13933;SDS011;7039;52.168;9.866;2023-02-15T19:06:01;16.33;;;10.70;;
13933;SDS011;7039;52.168;9.866;2023-02-15T19:08:32;17.90;;;10.33;;
13933;SDS011;7039;52.168;9.866;2023-02-15T19:25:59;33.77;;;17.00;;
13933;SDS011;7039;52.168;9.866;2023-02-15T21:11:44;17.17;;;9.30;;
13933;SDS011;7039;52.168;9.866;2023-02-15T21:51:04;34.03;;;15.90;;
13933;SDS011;7039;52.168;9.866;2023-02-15T21:53:48;24.37;;;11.97;;
13933;SDS011;7039;52.168;9.866;2023-02-15T21:56:15;24.13;;;12.90;;
13933;SDS011;7039;52.168;9.866;2023-02-15T21:58:43;20.77;;;10.47;;
13933;SDS011;7039;52.168;9.866;2023-02-15T22:01:14;19.03;;;10.93;;
13933;SDS011;7039;52.168;9.866;2023-02-15T22:03:46;22.07;;;10.60;;
13933;SDS011;7039;52.168;9.866;2023-02-15T22:06:13;21.33;;;11.50;;
13933;SDS011;7039;52.168;9.866;2023-02-15T22:08:40;17.60;;;9.67;;
13933;SDS011;7039;52.168;9.866;2023-02-15T22:11:08;23.13;;;11.50;;
13933;SDS011;7039;52.168;9.866;2023-02-15T22:13:37;20.17;;;10.90;;
13933;SDS011;7039;52.168;9.866;2023-02-15T22:16:05;21.07;;;10.83;;
13933;SDS011;7039;52.168;9.866;2023-02-15T22:18:32;20.47;;;10.17;;
13933;SDS011;7039;52.168;9.866;2023-02-15T22:20:59;18.13;;;9.77;;
13933;SDS011;7039;52.168;9.866;2023-02-15T22:23:28;25.87;;;12.00;;
13933;SDS011;7039;52.168;9.866;2023-02-15T22:25:56;23.67;;;10.87;;
13933;SDS011;7039;52.168;9.866;2023-02-15T22:28:25;20.37;;;10.20;;
13933;SDS011;7039;52.168;9.866;2023-02-15T22:30:56;20.37;;;9.33;;
13933;SDS011;7039;52.168;9.866;2023-02-15T22:33:24;20.37;;;10.80;;
13933;SDS011;7039;52.168;9.866;2023-02-15T22:35:52;22.50;;;11.27;;
13933;SDS011;7039;52.168;9.866;2023-02-15T22:38:18;22.63;;;11.77;;
13933;SDS011;7039;52.168;9.866;2023-02-15T22:40:47;20.27;;;10.57;;
13933;SDS011;7039;52.168;9.866;2023-02-15T22:43:20;21.07;;;12.03;;
13933;SDS011;7039;52.168;9.866;2023-02-15T22:45:53;24.87;;;11.87;;
13933;SDS011;7039;52.168;9.866;2023-02-15T22:48:24;25.80;;;12.23;;
13933;SDS011;7039;52.168;9.866;2023-02-15T22:50:51;24.40;;;11.87;;
13933;SDS011;7039;52.168;9.866;2023-02-15T22:53:18;18.33;;;9.53;;
13933;SDS011;7039;52.168;9.866;2023-02-15T22:55:44;23.23;;;11.57;;
13933;SDS011;7039;52.168;9.866;2023-02-15T22:58:15;21.47;;;11.93;;
13933;SDS011;7039;52.168;9.866;2023-02-15T23:00:43;15.73;;;7.30;;
13933;SDS011;7039;52.168;9.866;2023-02-15T23:03:14;23.77;;;10.23;;
13933;SDS011;7039;52.168;9.866;2023-02-15T23:05:43;21.63;;;10.20;;
13933;SDS011;7039;52.168;9.866;2023-02-15T23:08:11;20.60;;;10.53;;
13933;SDS011;7039;52.168;9.866;2023-02-15T23:10:38;25.83;;;12.80;;
13933;SDS011;7039;52.168;9.866;2023-02-15T23:13:13;26.57;;;12.97;;
13933;SDS011;7039;52.168;9.866;2023-02-15T23:15:49;25.40;;;11.83;;
13933;SDS011;7039;52.168;9.866;2023-02-15T23:18:19;19.57;;;10.17;;
13933;SDS011;7039;52.168;9.866;2023-02-15T23:20:48;27.60;;;11.57;;
13933;SDS011;7039;52.168;9.866;2023-02-15T23:23:16;23.27;;;11.73;;
13933;SDS011;7039;52.168;9.866;2023-02-15T23:25:45;23.17;;;11.57;;
13933;SDS011;7039;52.168;9.866;2023-02-15T23:28:20;22.40;;;10.60;;
13933;SDS011;7039;52.168;9.866;2023-02-15T23:30:49;25.07;;;12.80;;
13933;SDS011;7039;52.168;9.866;2023-02-15T23:33:17;27.33;;;12.73;;
13933;SDS011;7039;52.168;9.866;2023-02-15T23:35:45;26.63;;;12.73;;
13933;SDS011;7039;52.168;9.866;2023-02-15T23:38:19;26.20;;;13.10;;
13933;SDS011;7039;52.168;9.866;2023-02-15T23:40:48;23.30;;;11.63;;
13933;SDS011;7039;52.168;9.866;2023-02-15T23:43:36;20.03;;;10.37;;
13933;SDS011;7039;52.168;9.866;2023-02-15T23:46:04;26.60;;;12.60;;
13933;SDS011;7039;52.168;9.866;2023-02-15T23:48:33;27.50;;;13.07;;
13933;SDS011;7039;52.168;9.866;2023-02-15T23:51:00;28.57;;;13.40;;
13933;SDS011;7039;52.168;9.866;2023-02-15T23:53:27;26.77;;;13.27;;
13933;SDS011;7039;52.168;9.866;2023-02-15T23:55:54;26.50;;;13.37;;
13933;SDS011;7039;52.168;9.866;2023-02-15T23:58:22;23.40;;;11.60;;
